createdAt,value
2017-05-01T00:00:34.596Z,0
2017-05-01T00:01:34.624Z,0
2017-05-01T00:02:34.587Z,0
2017-05-01T00:03:34.818Z,0
2017-05-01T00:04:34.248Z,0
2017-05-01T00:05:34.548Z,0
2017-05-01T00:06:34.529Z,0
2017-05-01T00:07:34.520Z,0
2017-05-01T00:08:34.760Z,0
2017-05-01T00:09:34.502Z,0
2017-05-01T00:10:34.485Z,0
2017-05-01T00:11:34.481Z,0
2017-05-01T00:12:34.464Z,0
2017-05-01T00:13:34.758Z,0
2017-05-01T00:14:34.445Z,0
2017-05-01T00:15:34.128Z,0
2017-05-01T00:16:34.423Z,0
2017-05-01T00:17:34.411Z,0
2017-05-01T00:18:34.350Z,0
2017-05-01T00:19:34.387Z,0
2017-05-01T00:20:34.375Z,0
2017-05-01T00:21:34.061Z,0
2017-05-01T00:22:34.352Z,0
2017-05-01T00:23:34.645Z,0
2017-05-01T00:24:34.336Z,0
2017-05-01T00:25:34.318Z,0
2017-05-01T00:26:34.309Z,0
2017-05-01T00:27:33.996Z,0
2017-05-01T00:28:34.589Z,0
2017-05-01T00:29:34.281Z,0
2017-05-01T00:30:34.268Z,0
2017-05-01T00:31:34.256Z,0
2017-05-01T00:32:34.244Z,0
2017-05-01T00:33:34.535Z,0
2017-05-01T00:34:34.224Z,0
2017-05-01T00:35:34.215Z,0
2017-05-01T00:36:34.196Z,0
2017-05-01T00:37:34.192Z,0
2017-05-01T00:38:34.431Z,0
2017-05-01T00:39:33.860Z,0
2017-05-01T00:40:33.554Z,0
2017-05-01T00:41:34.488Z,0
2017-05-01T00:42:34.130Z,0
2017-05-01T00:43:34.435Z,0
2017-05-01T00:44:34.109Z,0
2017-05-01T00:45:34.097Z,0
2017-05-01T00:46:34.089Z,0
2017-05-01T00:47:34.076Z,0
2017-05-01T00:48:34.318Z,0
2017-05-01T00:49:34.055Z,0
2017-05-01T00:50:34.042Z,0
2017-05-01T00:51:34.033Z,0
2017-05-01T00:52:34.022Z,0
2017-05-01T00:53:34.315Z,0
2017-05-01T00:54:33.997Z,0
2017-05-01T00:55:33.987Z,0
2017-05-01T00:56:33.972Z,0
2017-05-01T00:57:33.965Z,0
2017-05-01T00:58:34.255Z,0
2017-05-01T00:59:33.941Z,0
2017-05-01T01:00:33.931Z,0
2017-05-01T01:01:33.934Z,0
2017-05-01T01:02:33.910Z,0
2017-05-01T01:03:34.247Z,0
2017-05-01T01:04:33.898Z,0
2017-05-01T01:05:33.601Z,0
2017-05-01T01:06:33.561Z,0
2017-05-01T01:07:33.849Z,0
2017-05-01T01:08:33.789Z,0
2017-05-01T01:09:33.832Z,0
2017-05-01T01:10:33.820Z,0
2017-05-01T01:11:33.805Z,0
2017-05-01T01:12:33.792Z,0
2017-05-01T01:13:34.033Z,0
2017-05-01T01:14:33.474Z,0
2017-05-01T01:15:33.453Z,0
2017-05-01T01:16:33.751Z,0
2017-05-01T01:17:33.438Z,0
2017-05-01T01:18:34.030Z,0
2017-05-01T01:19:33.717Z,0
2017-05-01T01:20:33.406Z,0
2017-05-01T01:21:33.691Z,0
2017-05-01T01:22:33.683Z,0
2017-05-01T01:23:33.717Z,0
2017-05-01T01:24:33.356Z,0
2017-05-01T01:25:33.644Z,0
2017-05-01T01:26:33.635Z,0
2017-05-01T01:27:33.626Z,0
2017-05-01T01:28:33.868Z,0
2017-05-01T01:29:33.603Z,0
2017-05-01T01:30:33.589Z,0
2017-05-01T01:31:33.577Z,0
2017-05-01T01:32:33.571Z,0
2017-05-01T01:33:33.808Z,0
2017-05-01T01:34:33.543Z,0
2017-05-01T01:35:33.535Z,0
2017-05-01T01:36:33.215Z,0
2017-05-01T01:37:33.507Z,0
2017-05-01T01:38:33.801Z,0
2017-05-01T01:39:33.489Z,0
2017-05-01T01:40:33.479Z,0
2017-05-01T01:41:33.461Z,0
2017-05-01T01:42:33.456Z,0
2017-05-01T01:43:33.390Z,0
2017-05-01T01:44:33.129Z,0
2017-05-01T01:45:33.416Z,0
2017-05-01T01:46:33.413Z,0
2017-05-01T01:47:33.093Z,0
2017-05-01T01:48:33.685Z,0
2017-05-01T01:49:33.422Z,0
2017-05-01T01:50:33.361Z,0
2017-05-01T01:51:33.043Z,0
2017-05-01T01:52:33.340Z,0
2017-05-01T01:53:33.582Z,0
2017-05-01T01:54:33.317Z,0
2017-05-01T01:55:33.308Z,0
2017-05-01T01:56:33.291Z,0
2017-05-01T01:57:33.282Z,0
2017-05-01T01:58:33.570Z,0
2017-05-01T01:59:33.257Z,0
2017-05-01T02:00:32.941Z,0
2017-05-01T02:01:33.234Z,0
2017-05-01T02:02:33.225Z,0
2017-05-01T02:03:32.908Z,0
2017-05-01T02:04:33.203Z,0
2017-05-01T02:05:33.192Z,0
2017-05-01T02:06:33.176Z,0
2017-05-01T02:07:33.167Z,0
2017-05-01T02:08:33.162Z,0
2017-05-01T02:09:33.149Z,0
2017-05-01T02:10:33.131Z,0
2017-05-01T02:11:33.144Z,0
2017-05-01T02:12:32.802Z,0
2017-05-01T02:13:33.097Z,0
2017-05-01T02:14:33.086Z,0
2017-05-01T02:15:33.071Z,0
2017-05-01T02:16:33.066Z,0
2017-05-01T02:17:33.052Z,0
2017-05-01T02:18:32.746Z,0
2017-05-01T02:19:33.034Z,0
2017-05-01T02:20:33.015Z,0
2017-05-01T02:21:33.002Z,0
2017-05-01T02:22:32.990Z,0
2017-05-01T02:23:32.987Z,0
2017-05-01T02:24:32.973Z,0
2017-05-01T02:25:32.953Z,0
2017-05-01T02:26:32.943Z,0
2017-05-01T02:27:32.631Z,0
2017-05-01T02:28:32.923Z,0
2017-05-01T02:29:32.919Z,0
2017-05-01T02:30:32.601Z,0
2017-05-01T02:31:32.888Z,0
2017-05-01T02:32:32.882Z,0
2017-05-01T02:33:32.868Z,0
2017-05-01T02:34:33.152Z,0
2017-05-01T02:35:32.840Z,0
2017-05-01T02:36:32.830Z,0
2017-05-01T02:37:32.818Z,0
2017-05-01T02:38:32.500Z,0
2017-05-01T02:39:33.087Z,0
2017-05-01T02:40:32.788Z,0
2017-05-01T02:41:32.771Z,0
2017-05-01T02:42:32.766Z,0
2017-05-01T02:43:32.753Z,0
2017-05-01T02:44:32.985Z,0
2017-05-01T02:45:32.724Z,0
2017-05-01T02:46:32.710Z,0
2017-05-01T02:47:32.398Z,0
2017-05-01T02:48:32.697Z,0
2017-05-01T02:49:32.977Z,0
2017-05-01T02:50:32.663Z,0
2017-05-01T02:51:32.652Z,4
2017-05-01T02:52:32.643Z,4
2017-05-01T02:53:32.385Z,0
2017-05-01T02:54:32.922Z,0
2017-05-01T02:55:32.610Z,4
2017-05-01T02:56:32.597Z,0
2017-05-01T02:57:32.584Z,4
2017-05-01T02:58:32.577Z,4
2017-05-01T02:59:32.814Z,4
2017-05-01T03:00:32.547Z,4
2017-05-01T03:01:32.535Z,4
2017-05-01T03:02:32.530Z,8
2017-05-01T03:03:32.515Z,8
2017-05-01T03:04:32.800Z,12
2017-05-01T03:05:32.486Z,12
2017-05-01T03:06:32.481Z,12
2017-05-01T03:07:32.464Z,12
2017-05-01T03:08:32.455Z,16
2017-05-01T03:09:32.691Z,20
2017-05-01T03:10:32.436Z,20
2017-05-01T03:11:32.419Z,24
2017-05-01T03:12:32.408Z,32
2017-05-01T03:13:32.398Z,36
2017-05-01T03:14:32.685Z,40
2017-05-01T03:15:32.369Z,44
2017-05-01T03:16:32.356Z,52
2017-05-01T03:17:32.347Z,60
2017-05-01T03:18:32.334Z,64
2017-05-01T03:19:32.673Z,76
2017-05-01T03:20:32.313Z,84
2017-05-01T03:21:32.299Z,96
2017-05-01T03:22:32.285Z,112
2017-05-01T03:23:32.274Z,124
2017-05-01T03:24:32.516Z,136
2017-05-01T03:25:32.248Z,152
2017-05-01T03:26:32.236Z,172
2017-05-01T03:27:32.229Z,188
2017-05-01T03:28:32.217Z,212
2017-05-01T03:29:32.464Z,232
2017-05-01T03:30:32.189Z,252
2017-05-01T03:31:32.180Z,276
2017-05-01T03:32:32.168Z,304
2017-05-01T03:33:32.155Z,332
2017-05-01T03:34:32.092Z,360
2017-05-01T03:35:32.138Z,392
2017-05-01T03:36:32.117Z,424
2017-05-01T03:37:32.113Z,460
2017-05-01T03:38:32.096Z,496
2017-05-01T03:39:32.423Z,536
2017-05-01T03:40:32.072Z,576
2017-05-01T03:41:32.061Z,616
2017-05-01T03:42:32.047Z,664
2017-05-01T03:43:32.043Z,708
2017-05-01T03:44:32.325Z,760
2017-05-01T03:45:32.010Z,808
2017-05-01T03:46:31.999Z,864
2017-05-01T03:47:31.990Z,920
2017-05-01T03:48:31.675Z,980
2017-05-01T03:49:32.216Z,1040
2017-05-01T03:50:31.955Z,1104
2017-05-01T03:51:31.979Z,1172
2017-05-01T03:52:31.625Z,1244
2017-05-01T03:53:31.919Z,1316
2017-05-01T03:54:32.209Z,1388
2017-05-01T03:55:31.894Z,1472
2017-05-01T03:56:31.881Z,1552
2017-05-01T03:57:31.871Z,1636
2017-05-01T03:58:31.860Z,1724
2017-05-01T03:59:32.155Z,1812
2017-05-01T04:00:31.834Z,1924
2017-05-01T04:01:31.826Z,2060
2017-05-01T04:02:31.510Z,2208
2017-05-01T04:03:31.801Z,2380
2017-05-01T04:04:32.039Z,2560
2017-05-01T04:05:31.784Z,2736
2017-05-01T04:06:31.766Z,2852
2017-05-01T04:07:31.763Z,2892
2017-05-01T04:08:31.749Z,2936
2017-05-01T04:09:32.031Z,3000
2017-05-01T04:10:31.719Z,3072
2017-05-01T04:11:31.707Z,3188
2017-05-01T04:12:31.694Z,3428
2017-05-01T04:13:31.687Z,3724
2017-05-01T04:14:31.928Z,3944
2017-05-01T04:15:31.661Z,4160
2017-05-01T04:16:31.649Z,4284
2017-05-01T04:17:31.636Z,4308
2017-05-01T04:18:31.325Z,4364
2017-05-01T04:19:31.870Z,4380
2017-05-01T04:20:31.304Z,4364
2017-05-01T04:21:31.597Z,4344
2017-05-01T04:22:31.283Z,4280
2017-05-01T04:23:31.575Z,4068
2017-05-01T04:24:31.562Z,3944
2017-05-01T04:25:31.247Z,3744
2017-05-01T04:26:31.243Z,3868
2017-05-01T04:27:31.537Z,3684
2017-05-01T04:28:31.524Z,3472
2017-05-01T04:29:31.812Z,3272
2017-05-01T04:30:31.508Z,3112
2017-05-01T04:31:31.500Z,3072
2017-05-01T04:32:31.484Z,3160
2017-05-01T04:33:31.478Z,3320
2017-05-01T04:34:31.766Z,3516
2017-05-01T04:35:31.454Z,3716
2017-05-01T04:36:31.443Z,3916
2017-05-01T04:37:31.433Z,4120
2017-05-01T04:38:31.139Z,4324
2017-05-01T04:39:31.667Z,4536
2017-05-01T04:40:31.405Z,4724
2017-05-01T04:41:31.394Z,4900
2017-05-01T04:42:31.386Z,5092
2017-05-01T04:43:31.376Z,5272
2017-05-01T04:44:31.669Z,5392
2017-05-01T04:45:31.354Z,5436
2017-05-01T04:46:31.348Z,5452
2017-05-01T04:47:31.034Z,5480
2017-05-01T04:48:31.333Z,5552
2017-05-01T04:49:31.565Z,6760
2017-05-01T04:50:31.310Z,5508
2017-05-01T04:51:31.297Z,5372
2017-05-01T04:52:31.287Z,5212
2017-05-01T04:53:31.280Z,5036
2017-05-01T04:54:31.517Z,4916
2017-05-01T04:55:31.257Z,4904
2017-05-01T04:56:31.244Z,4784
2017-05-01T04:57:31.239Z,4576
2017-05-01T04:58:31.226Z,4284
2017-05-01T04:59:31.470Z,4180
2017-05-01T05:00:31.204Z,4484
2017-05-01T05:01:31.195Z,5244
2017-05-01T05:02:31.186Z,5964
2017-05-01T05:03:31.174Z,6332
2017-05-01T05:04:31.467Z,6352
2017-05-01T05:05:31.153Z,6284
2017-05-01T05:06:31.146Z,6304
2017-05-01T05:07:31.132Z,6300
2017-05-01T05:08:31.157Z,6248
2017-05-01T05:09:30.812Z,6284
2017-05-01T05:10:31.105Z,6248
2017-05-01T05:11:31.093Z,5928
2017-05-01T05:12:31.085Z,5680
2017-05-01T05:13:31.084Z,5676
2017-05-01T05:14:31.069Z,5764
2017-05-01T05:15:31.053Z,5740
2017-05-01T05:16:31.040Z,5952
2017-05-01T05:17:31.040Z,6548
2017-05-01T05:18:31.027Z,6980
2017-05-01T05:19:31.016Z,7520
2017-05-01T05:20:31.009Z,8264
2017-05-01T05:21:30.997Z,9288
2017-05-01T05:22:30.684Z,10136
2017-05-01T05:23:30.983Z,10556
2017-05-01T05:24:30.967Z,10392
2017-05-01T05:25:30.955Z,10004
2017-05-01T05:26:30.952Z,9280
2017-05-01T05:27:30.936Z,8532
2017-05-01T05:28:30.930Z,7912
2017-05-01T05:29:30.925Z,7556
2017-05-01T05:30:30.913Z,7476
2017-05-01T05:31:30.903Z,7500
2017-05-01T05:32:30.890Z,7416
2017-05-01T05:33:30.884Z,7268
2017-05-01T05:34:30.875Z,7120
2017-05-01T05:35:30.861Z,7232
2017-05-01T05:36:30.859Z,7688
2017-05-01T05:37:30.844Z,8252
2017-05-01T05:38:30.879Z,8432
2017-05-01T05:39:30.826Z,8332
2017-05-01T05:40:30.816Z,8256
2017-05-01T05:41:30.809Z,8036
2017-05-01T05:42:30.802Z,7532
2017-05-01T05:43:30.789Z,7140
2017-05-01T05:44:30.783Z,7260
2017-05-01T05:45:30.770Z,7524
2017-05-01T05:46:30.764Z,7560
2017-05-01T05:47:30.755Z,7580
2017-05-01T05:48:30.745Z,7776
2017-05-01T05:49:30.737Z,8228
2017-05-01T05:50:30.733Z,8456
2017-05-01T05:51:30.413Z,8512
2017-05-01T05:52:30.707Z,8240
2017-05-01T05:53:30.696Z,7884
2017-05-01T05:54:30.694Z,7796
2017-05-01T05:55:30.979Z,8112
2017-05-01T05:56:30.673Z,8732
2017-05-01T05:57:30.663Z,9052
2017-05-01T05:58:30.664Z,9256
2017-05-01T05:59:30.644Z,9760
2017-05-01T06:00:30.884Z,10240
2017-05-01T06:01:30.627Z,10448
2017-05-01T06:02:30.615Z,10396
2017-05-01T06:03:30.623Z,10276
2017-05-01T06:04:30.300Z,10060
2017-05-01T06:05:30.895Z,9740
2017-05-01T06:06:30.587Z,9476
2017-05-01T06:07:30.574Z,9676
2017-05-01T06:08:30.569Z,10388
2017-05-01T06:09:30.566Z,10932
2017-05-01T06:10:30.801Z,10904
2017-05-01T06:11:30.544Z,11032
2017-05-01T06:12:30.534Z,11396
2017-05-01T06:13:30.528Z,11060
2017-05-01T06:14:30.519Z,10696
2017-05-01T06:15:30.862Z,10900
2017-05-01T06:16:30.499Z,11088
2017-05-01T06:17:30.495Z,10872
2017-05-01T06:18:30.498Z,10652
2017-05-01T06:19:30.482Z,10488
2017-05-01T06:20:30.720Z,10496
2017-05-01T06:21:30.460Z,10708
2017-05-01T06:22:30.453Z,11200
2017-05-01T06:23:30.451Z,11868
2017-05-01T06:24:30.439Z,12244
2017-05-01T06:25:30.731Z,11840
2017-05-01T06:26:30.429Z,11528
2017-05-01T06:27:30.417Z,12188
2017-05-01T06:28:30.409Z,13292
2017-05-01T06:29:30.094Z,14188
2017-05-01T06:30:30.698Z,14880
2017-05-01T06:31:30.387Z,14836
2017-05-01T06:32:30.381Z,14452
2017-05-01T06:33:30.374Z,15016
2017-05-01T06:34:30.367Z,15220
2017-05-01T06:35:30.607Z,15116
2017-05-01T06:36:30.351Z,15092
2017-05-01T06:37:30.342Z,14884
2017-05-01T06:38:30.340Z,15520
2017-05-01T06:39:30.333Z,15216
2017-05-01T06:40:30.268Z,15092
2017-05-01T06:41:30.317Z,14376
2017-05-01T06:42:30.312Z,14028
2017-05-01T06:43:30.343Z,14740
2017-05-01T06:44:30.304Z,15556
2017-05-01T06:45:30.641Z,15872
2017-05-01T06:46:30.285Z,15560
2017-05-01T06:47:30.278Z,14704
2017-05-01T06:48:30.277Z,13888
2017-05-01T06:49:30.277Z,13756
2017-05-01T06:50:30.253Z,14108
2017-05-01T06:51:30.253Z,14312
2017-05-01T06:52:29.949Z,14328
2017-05-01T06:53:30.242Z,14528
2017-05-01T06:54:30.239Z,14892
2017-05-01T06:55:30.525Z,15240
2017-05-01T06:56:30.229Z,15456
2017-05-01T06:57:30.225Z,15660
2017-05-01T06:58:30.207Z,15904
2017-05-01T06:59:30.204Z,15568
2017-05-01T07:00:30.452Z,15396
2017-05-01T07:01:30.192Z,14856
2017-05-01T07:02:30.185Z,14276
2017-05-01T07:03:30.186Z,14436
2017-05-01T07:04:30.174Z,15040
2017-05-01T07:05:30.420Z,15904
2017-05-01T07:06:30.172Z,16096
2017-05-01T07:07:30.155Z,15476
2017-05-01T07:08:30.152Z,15284
2017-05-01T07:09:29.839Z,15968
2017-05-01T07:10:30.441Z,16352
2017-05-01T07:11:29.832Z,16800
2017-05-01T07:12:30.126Z,17024
2017-05-01T07:13:29.819Z,17152
2017-05-01T07:14:30.127Z,17472
2017-05-01T07:15:30.409Z,18144
2017-05-01T07:16:29.836Z,19296
2017-05-01T07:17:30.098Z,19968
2017-05-01T07:18:30.098Z,19648
2017-05-01T07:19:30.094Z,19456
2017-05-01T07:20:30.339Z,20384
2017-05-01T07:21:30.077Z,22976
2017-05-01T07:22:30.068Z,23808
2017-05-01T07:23:30.067Z,25920
2017-05-01T07:24:30.063Z,27424
2017-05-01T07:25:30.356Z,29760
2017-05-01T07:26:30.051Z,31872
2017-05-01T07:27:30.084Z,52576
2017-05-01T07:28:30.039Z,30944
2017-05-01T07:29:30.048Z,26176
2017-05-01T07:30:30.335Z,26528
2017-05-01T07:31:30.030Z,28288
2017-05-01T07:32:30.023Z,29824
2017-05-01T07:33:30.028Z,28544
2017-05-01T07:34:29.716Z,31616
2017-05-01T07:35:30.269Z,26112
2017-05-01T07:36:30.013Z,45536
2017-05-01T07:37:29.707Z,63968
2017-05-01T07:38:30.007Z,69024
2017-05-01T07:39:30.001Z,44768
2017-05-01T07:40:30.301Z,66176
2017-05-01T07:41:30.000Z,68672
2017-05-01T07:42:29.993Z,74176
2017-05-01T07:43:30.005Z,40288
2017-05-01T07:44:29.693Z,26464
2017-05-01T07:45:30.348Z,29696
2017-05-01T07:46:29.692Z,56320
2017-05-01T07:47:29.688Z,27584
2017-05-01T07:48:29.992Z,24832
2017-05-01T07:49:29.992Z,54752
2017-05-01T07:50:30.294Z,102752
2017-05-01T07:51:29.994Z,25792
2017-05-01T07:52:29.693Z,29344
2017-05-01T07:53:29.992Z,28256
2017-05-01T07:54:29.999Z,55328
2017-05-01T07:55:30.250Z,35136
2017-05-01T07:56:29.697Z,30304
2017-05-01T07:57:29.694Z,49024
2017-05-01T07:58:29.999Z,34560
2017-05-01T07:59:30.005Z,28192
2017-05-01T08:00:30.248Z,32704
2017-05-01T08:01:29.999Z,30208
2017-05-01T08:02:30.003Z,57184
2017-05-01T08:03:30.000Z,31072
2017-05-01T08:04:29.999Z,47040
2017-05-01T08:05:30.254Z,26816
2017-05-01T08:06:30.005Z,32768
2017-05-01T08:07:30.003Z,28480
2017-05-01T08:08:30.008Z,26144
2017-05-01T08:09:30.007Z,24128
2017-05-01T08:10:30.360Z,29344
2017-05-01T08:11:29.702Z,34336
2017-05-01T08:12:30.004Z,33376
2017-05-01T08:13:29.709Z,40576
2017-05-01T08:14:29.705Z,32224
2017-05-01T08:15:30.275Z,30080
2017-05-01T08:16:30.009Z,30048
2017-05-01T08:17:30.063Z,29376
2017-05-01T08:18:30.010Z,32512
2017-05-01T08:19:30.006Z,29888
2017-05-01T08:20:30.260Z,25920
2017-05-01T08:21:30.006Z,29248
2017-05-01T08:22:30.009Z,28448
2017-05-01T08:23:30.007Z,29088
2017-05-01T08:24:29.706Z,28576
2017-05-01T08:25:30.009Z,28192
2017-05-01T08:26:29.701Z,28992
2017-05-01T08:27:30.004Z,30080
2017-05-01T08:28:30.015Z,30336
2017-05-01T08:29:30.015Z,28960
2017-05-01T08:30:30.002Z,25344
2017-05-01T08:31:30.398Z,26592
2017-05-01T08:32:29.999Z,25984
2017-05-01T08:33:30.006Z,28000
2017-05-01T08:34:30.001Z,29760
2017-05-01T08:35:30.248Z,28224
2017-05-01T08:36:30.001Z,30080
2017-05-01T08:37:30.000Z,32160
2017-05-01T08:38:30.002Z,31648
2017-05-01T08:39:30.000Z,31456
2017-05-01T08:40:30.244Z,32384
2017-05-01T08:41:29.694Z,32576
2017-05-01T08:42:29.994Z,32704
2017-05-01T08:43:29.993Z,32096
2017-05-01T08:44:29.989Z,30528
2017-05-01T08:45:30.238Z,29376
2017-05-01T08:46:29.990Z,28864
2017-05-01T08:47:29.997Z,29280
2017-05-01T08:48:29.684Z,28704
2017-05-01T08:49:29.982Z,28288
2017-05-01T08:50:29.677Z,27744
2017-05-01T08:51:29.979Z,28096
2017-05-01T08:52:29.677Z,28832
2017-05-01T08:53:29.989Z,29248
2017-05-01T08:54:29.987Z,29536
2017-05-01T08:55:30.228Z,29472
2017-05-01T08:56:29.982Z,29216
2017-05-01T08:57:29.981Z,28544
2017-05-01T08:58:29.983Z,28352
2017-05-01T08:59:29.976Z,27200
2017-05-01T09:00:29.975Z,25824
2017-05-01T09:01:29.969Z,25632
2017-05-01T09:02:30.006Z,26016
2017-05-01T09:03:29.968Z,28320
2017-05-01T09:04:29.972Z,28992
2017-05-01T09:05:29.967Z,28768
2017-05-01T09:06:30.329Z,27424
2017-05-01T09:07:29.965Z,26528
2017-05-01T09:08:29.669Z,25696
2017-05-01T09:09:29.967Z,27328
2017-05-01T09:10:29.960Z,26048
2017-05-01T09:11:30.213Z,23744
2017-05-01T09:12:29.657Z,23968
2017-05-01T09:13:30.002Z,24736
2017-05-01T09:14:29.984Z,25504
2017-05-01T09:15:29.962Z,25888
2017-05-01T09:16:29.909Z,25248
2017-05-01T09:17:29.956Z,23776
2017-05-01T09:18:29.962Z,23328
2017-05-01T09:19:29.972Z,21504
2017-05-01T09:20:29.960Z,17528
2017-05-01T09:21:29.953Z,15564
2017-05-01T09:22:29.649Z,14236
2017-05-01T09:23:29.957Z,13108
2017-05-01T09:24:29.649Z,12592
2017-05-01T09:25:29.649Z,12384
2017-05-01T09:26:29.919Z,12200
2017-05-01T09:27:29.945Z,12044
2017-05-01T09:28:29.950Z,11848
2017-05-01T09:29:29.947Z,11708
2017-05-01T09:30:29.944Z,11712
2017-05-01T09:31:30.188Z,11664
2017-05-01T09:32:29.934Z,11532
2017-05-01T09:33:29.953Z,11524
2017-05-01T09:34:29.935Z,11580
2017-05-01T09:35:29.933Z,11520
2017-05-01T09:36:30.176Z,11512
2017-05-01T09:37:29.624Z,11484
2017-05-01T09:38:29.923Z,11456
2017-05-01T09:39:29.927Z,11440
2017-05-01T09:40:29.920Z,11460
2017-05-01T09:41:30.215Z,11660
2017-05-01T09:42:29.913Z,11780
2017-05-01T09:43:29.907Z,11636
2017-05-01T09:44:29.607Z,11504
2017-05-01T09:45:29.905Z,11468
2017-05-01T09:46:30.199Z,11352
2017-05-01T09:47:29.908Z,11244
2017-05-01T09:48:29.891Z,11156
2017-05-01T09:49:29.896Z,11192
2017-05-01T09:50:29.886Z,11240
2017-05-01T09:51:30.197Z,11060
2017-05-01T09:52:29.881Z,10864
2017-05-01T09:53:29.879Z,10792
2017-05-01T09:54:29.582Z,10708
2017-05-01T09:55:29.872Z,10656
2017-05-01T09:56:30.117Z,10628
2017-05-01T09:57:29.860Z,10680
2017-05-01T09:58:29.861Z,10768
2017-05-01T09:59:29.856Z,10728
2017-05-01T10:00:29.852Z,10688
2017-05-01T10:01:30.098Z,10768
2017-05-01T10:02:29.847Z,10892
2017-05-01T10:03:29.844Z,10920
2017-05-01T10:04:29.839Z,10916
2017-05-01T10:05:29.836Z,10852
2017-05-01T10:06:29.827Z,10748
2017-05-01T10:07:29.830Z,10632
2017-05-01T10:08:29.824Z,10616
2017-05-01T10:09:30.189Z,10668
2017-05-01T10:10:29.815Z,10680
2017-05-01T10:11:30.166Z,10512
2017-05-01T10:12:29.820Z,10324
2017-05-01T10:13:29.809Z,10168
2017-05-01T10:14:29.806Z,10064
2017-05-01T10:15:29.798Z,10084
2017-05-01T10:16:30.044Z,10200
2017-05-01T10:17:29.791Z,10300
2017-05-01T10:18:29.486Z,10356
2017-05-01T10:19:29.486Z,10400
2017-05-01T10:20:29.785Z,10448
2017-05-01T10:21:30.082Z,10432
2017-05-01T10:22:29.780Z,10408
2017-05-01T10:23:29.773Z,10340
2017-05-01T10:24:29.769Z,10356
2017-05-01T10:25:29.769Z,10384
2017-05-01T10:26:30.012Z,10376
2017-05-01T10:27:29.770Z,10312
2017-05-01T10:28:29.760Z,10352
2017-05-01T10:29:29.755Z,10464
2017-05-01T10:30:29.753Z,10500
2017-05-01T10:31:29.737Z,10532
2017-05-01T10:32:29.743Z,10780
2017-05-01T10:33:29.740Z,11176
2017-05-01T10:34:29.735Z,11588
2017-05-01T10:35:29.733Z,11172
2017-05-01T10:36:29.678Z,10932
2017-05-01T10:37:29.720Z,10508
2017-05-01T10:38:29.728Z,10284
2017-05-01T10:39:29.720Z,10220
2017-05-01T10:40:29.716Z,10192
2017-05-01T10:41:29.659Z,10224
2017-05-01T10:42:29.702Z,10484
2017-05-01T10:43:29.704Z,10420
2017-05-01T10:44:29.703Z,10104
2017-05-01T10:45:29.697Z,10192
2017-05-01T10:46:29.991Z,10148
2017-05-01T10:47:29.686Z,10116
2017-05-01T10:48:29.683Z,10148
2017-05-01T10:49:29.392Z,10384
2017-05-01T10:50:29.678Z,10852
2017-05-01T10:51:29.925Z,11248
2017-05-01T10:52:29.376Z,11072
2017-05-01T10:53:29.671Z,10876
2017-05-01T10:54:29.371Z,10820
2017-05-01T10:55:29.657Z,11024
2017-05-01T10:56:30.039Z,12300
2017-05-01T10:57:29.666Z,11524
2017-05-01T10:58:29.657Z,10292
2017-05-01T10:59:29.657Z,10064
2017-05-01T11:00:29.340Z,9828
2017-05-01T11:01:29.942Z,11328
2017-05-01T11:02:29.336Z,13204
2017-05-01T11:03:29.645Z,16432
2017-05-01T11:04:29.328Z,19936
2017-05-01T11:05:29.629Z,19360
2017-05-01T11:06:29.972Z,18944
2017-05-01T11:07:29.325Z,19776
2017-05-01T11:08:29.329Z,20032
2017-05-01T11:09:29.619Z,20640
2017-05-01T11:10:29.613Z,19456
2017-05-01T11:11:29.914Z,17632
2017-05-01T11:12:29.609Z,17728
2017-05-01T11:13:29.608Z,17344
2017-05-01T11:14:29.607Z,15536
2017-05-01T11:15:29.600Z,12280
2017-05-01T11:16:29.895Z,10760
2017-05-01T11:17:29.596Z,9780
2017-05-01T11:18:29.296Z,11308
2017-05-01T11:19:29.588Z,12120
2017-05-01T11:20:29.585Z,12624
2017-05-01T11:21:29.835Z,12708
2017-05-01T11:22:29.281Z,12540
2017-05-01T11:23:29.585Z,12096
2017-05-01T11:24:29.614Z,13268
2017-05-01T11:25:29.576Z,13600
2017-05-01T11:26:29.824Z,14340
2017-05-01T11:27:29.274Z,15728
2017-05-01T11:28:29.567Z,16608
2017-05-01T11:29:29.574Z,15556
2017-05-01T11:30:29.570Z,15196
2017-05-01T11:31:29.810Z,15112
2017-05-01T11:32:29.565Z,16480
2017-05-01T11:33:29.558Z,16576
2017-05-01T11:34:29.572Z,17568
2017-05-01T11:35:29.554Z,18720
2017-05-01T11:36:29.497Z,20224
2017-05-01T11:37:29.243Z,17888
2017-05-01T11:38:29.549Z,16156
2017-05-01T11:39:29.550Z,17024
2017-05-01T11:40:29.541Z,19200
2017-05-01T11:41:29.844Z,19072
2017-05-01T11:42:29.540Z,17984
2017-05-01T11:43:29.541Z,16544
2017-05-01T11:44:29.233Z,15044
2017-05-01T11:45:29.529Z,14800
2017-05-01T11:46:29.833Z,16224
2017-05-01T11:47:28.925Z,17856
2017-05-01T11:48:28.926Z,18912
2017-05-01T11:49:29.228Z,19648
2017-05-01T11:50:29.529Z,21056
2017-05-01T11:51:29.825Z,22144
2017-05-01T11:52:29.222Z,21920
2017-05-01T11:53:29.524Z,20992
2017-05-01T11:54:29.521Z,20736
2017-05-01T11:55:29.520Z,20960
2017-05-01T11:56:29.766Z,19968
2017-05-01T11:57:29.517Z,19712
2017-05-01T11:58:29.517Z,20384
2017-05-01T11:59:29.209Z,20736
2017-05-01T12:00:29.511Z,19520
2017-05-01T12:01:29.758Z,18464
2017-05-01T12:02:29.551Z,18560
2017-05-01T12:03:29.511Z,18464
2017-05-01T12:04:29.506Z,18880
2017-05-01T12:05:29.201Z,19552
2017-05-01T12:06:29.806Z,19840
2017-05-01T12:07:29.198Z,19904
2017-05-01T12:08:29.207Z,19584
2017-05-01T12:09:29.504Z,19264
2017-05-01T12:10:29.503Z,19168
2017-05-01T12:11:29.753Z,19232
2017-05-01T12:12:28.898Z,19584
2017-05-01T12:13:29.499Z,20000
2017-05-01T12:14:29.510Z,20096
2017-05-01T12:15:29.496Z,20384
2017-05-01T12:16:29.843Z,20320
2017-05-01T12:17:29.493Z,19104
2017-05-01T12:18:29.498Z,17568
2017-05-01T12:19:29.494Z,16704
2017-05-01T12:20:29.492Z,17248
2017-05-01T12:21:29.781Z,17984
2017-05-01T12:22:29.487Z,19136
2017-05-01T12:23:29.499Z,20064
2017-05-01T12:24:29.192Z,20896
2017-05-01T12:25:28.915Z,21440
2017-05-01T12:26:29.785Z,21376
2017-05-01T12:27:29.482Z,21120
2017-05-01T12:28:29.480Z,20992
2017-05-01T12:29:29.182Z,20640
2017-05-01T12:30:29.176Z,20416
2017-05-01T12:31:29.734Z,20480
2017-05-01T12:32:29.478Z,20416
2017-05-01T12:33:29.479Z,19616
2017-05-01T12:34:29.484Z,18880
2017-05-01T12:35:28.867Z,18560
2017-05-01T12:36:29.727Z,18432
2017-05-01T12:37:29.473Z,19072
2017-05-01T12:38:29.476Z,18944
2017-05-01T12:39:29.471Z,18080
2017-05-01T12:40:29.468Z,16864
2017-05-01T12:41:29.823Z,15652
2017-05-01T12:42:29.164Z,14904
2017-05-01T12:43:29.170Z,14612
2017-05-01T12:44:29.466Z,15124
2017-05-01T12:45:29.166Z,16512
2017-05-01T12:46:29.767Z,18272
2017-05-01T12:47:29.160Z,20000
2017-05-01T12:48:29.464Z,21088
2017-05-01T12:49:29.162Z,21632
2017-05-01T12:50:29.456Z,21984
2017-05-01T12:51:29.758Z,22080
2017-05-01T12:52:29.456Z,22304
2017-05-01T12:53:29.165Z,22112
2017-05-01T12:54:29.157Z,21664
2017-05-01T12:55:29.466Z,21312
2017-05-01T12:56:29.701Z,21088
2017-05-01T12:57:29.450Z,20800
2017-05-01T12:58:28.851Z,20096
2017-05-01T12:59:29.452Z,19392
2017-05-01T13:00:28.842Z,18816
2017-05-01T13:01:29.700Z,18528
2017-05-01T13:02:29.449Z,18592
2017-05-01T13:03:29.446Z,19072
2017-05-01T13:04:29.446Z,19808
2017-05-01T13:05:29.142Z,20352
2017-05-01T13:06:29.746Z,20832
2017-05-01T13:07:28.837Z,21024
2017-05-01T13:08:28.838Z,21024
2017-05-01T13:09:29.448Z,20608
2017-05-01T13:10:29.139Z,20256
2017-05-01T13:11:29.435Z,20224
2017-05-01T13:12:28.835Z,19392
2017-05-01T13:13:28.835Z,17632
2017-05-01T13:14:29.492Z,15404
2017-05-01T13:15:29.136Z,14180
2017-05-01T13:16:29.688Z,14604
2017-05-01T13:17:29.438Z,15904
2017-05-01T13:18:29.439Z,16768
2017-05-01T13:19:29.438Z,17024
2017-05-01T13:20:29.128Z,17280
2017-05-01T13:21:29.683Z,17568
2017-05-01T13:22:28.823Z,18176
2017-05-01T13:23:29.433Z,18272
2017-05-01T13:24:29.437Z,18240